KASH/ASH METAR and TAF weather

Enter ICAO airport designator
Station Type Date Time Source
KASH METAR 2019/12/13 21:56 UTC NOAA

KASH 132156Z 29003KT 8SM OVC013 01/M02 A3034 RMK AO2 RAE07 SLP281 P0000 T00061017


Station Type Date Time Source
KASH Decoded METAR 2019/12/13 21:56 UTC NOAA

Nashua, Boire Field Airport, NH, United States (KASH) 42-46-54N 071-30-53W
Dec 13, 2019 - 04:56 PM EST / 2019.12.13 2156 UTC
Wind: from the WNW (290 degrees) at 3 MPH (3 KT):0
Visibility: 8 mile(s):0
Sky conditions: overcast
Precipitation last hour: A trace
Temperature: 33.1 F (0.6 C)
Dew Point: 28.9 F (-1.7 C)
Relative Humidity: 84%
Pressure (altimeter): 30.34 in. Hg (1027 hPa)
ob: KASH 132156Z 29003KT 8SM OVC013 01/M02 A3034 RMK AO2 RAE07 SLP281 P0000 T00061017
cycle: 22

Station Type Date Time Source
KASH TAF UTC NOAA

Error!

Example: see airport list